createdAt,value
2022-11-05T03:25:59.851Z,3.72
2022-11-05T03:28:32.223Z,3.90
2022-11-05T03:31:04.715Z,4.15
2022-11-05T03:33:37.214Z,3.95
2022-11-05T03:38:39.968Z,3.55
2022-11-05T03:41:12.230Z,4.17
2022-11-05T03:43:45.057Z,3.67
2022-11-05T03:46:17.633Z,3.00
2022-11-05T03:48:50.122Z,3.70
2022-11-05T03:51:31.811Z,2.75
2022-11-05T03:54:04.050Z,3.50
2022-11-05T03:56:39.498Z,3.03
2022-11-05T03:59:11.732Z,4.03
2022-11-05T04:01:43.115Z,4.10
2022-11-05T04:04:12.634Z,4.03
2022-11-05T04:06:59.940Z,4.45
2022-11-05T04:09:47.304Z,4.37
2022-11-05T04:12:34.502Z,3.62
2022-11-05T04:15:04.557Z,3.92
2022-11-05T04:17:34.159Z,3.98
2022-11-05T04:20:21.627Z,3.60
2022-11-05T04:23:12.522Z,4.07
2022-11-05T04:25:42.078Z,4.47
2022-11-05T04:28:11.873Z,4.70
2022-11-05T04:30:43.780Z,4.35
2022-11-05T04:33:17.994Z,4.40
2022-11-05T04:35:49.793Z,3.75
2022-11-05T04:38:20.761Z,3.53
2022-11-05T04:40:50.334Z,4.17
2022-11-05T04:43:21.362Z,3.98
2022-11-05T04:45:51.378Z,3.97
2022-11-05T04:48:20.809Z,3.52
2022-11-05T04:50:50.231Z,3.55
2022-11-05T04:53:19.789Z,3.87
2022-11-05T04:55:49.496Z,4.15
2022-11-05T04:58:19.071Z,3.65
2022-11-05T05:00:50.725Z,4.15
2022-11-05T05:03:20.884Z,3.77
2022-11-05T05:05:52.967Z,3.30
2022-11-05T05:08:21.389Z,3.27
2022-11-05T05:10:50.816Z,2.98
2022-11-05T05:13:20.250Z,3.27
2022-11-05T05:15:49.682Z,4.17
2022-11-05T05:18:19.117Z,3.52
2022-11-05T05:21:06.468Z,3.85
2022-11-05T05:23:35.899Z,3.22
2022-11-05T05:26:05.388Z,3.70
2022-11-05T05:28:34.975Z,3.45
2022-11-05T05:31:04.540Z,3.35
2022-11-05T05:33:33.971Z,3.92
2022-11-05T05:36:08.391Z,3.92
2022-11-05T05:38:34.533Z,2.70
2022-11-05T05:41:04.327Z,3.83
2022-11-05T05:43:34.781Z,2.92
2022-11-05T05:46:06.843Z,3.58
2022-11-05T05:48:36.261Z,4.00
2022-11-05T05:51:08.226Z,3.67
2022-11-05T05:53:38.647Z,3.17
2022-11-05T05:56:08.503Z,3.33
2022-11-05T05:58:40.059Z,4.05
2022-11-05T06:01:18.965Z,4.07
2022-11-05T06:03:47.200Z,3.50
2022-11-05T06:06:22.765Z,3.35
2022-11-05T06:08:52.191Z,3.70
2022-11-05T06:11:21.623Z,3.25
2022-11-05T06:13:51.210Z,3.67
2022-11-05T06:16:21.369Z,3.20
2022-11-05T06:18:50.831Z,3.90
2022-11-05T06:21:20.464Z,3.90
2022-11-05T06:23:50.429Z,4.50
2022-11-05T06:26:20.929Z,4.53
2022-11-05T06:28:50.418Z,3.58
2022-11-05T06:31:20.352Z,3.75
2022-11-05T06:33:49.881Z,3.52
2022-11-05T06:36:20.852Z,3.95
2022-11-05T06:38:50.328Z,3.17
2022-11-05T06:41:19.804Z,4.42
2022-11-05T06:43:49.297Z,3.65
2022-11-05T06:46:18.820Z,2.80
2022-11-05T06:48:49.172Z,3.58
2022-11-05T06:51:18.975Z,3.65
2022-11-05T06:53:48.407Z,3.77
2022-11-05T06:56:17.907Z,4.08
2022-11-05T06:58:47.377Z,3.65
2022-11-05T07:01:16.916Z,4.05
2022-11-05T07:03:48.441Z,4.15
2022-11-05T07:06:18.012Z,4.00
2022-11-05T07:08:47.436Z,3.65
2022-11-05T07:11:16.891Z,4.85
2022-11-05T07:13:46.317Z,4.35
2022-11-05T07:16:15.814Z,4.20
2022-11-05T07:18:45.256Z,3.83
2022-11-05T07:21:15.256Z,4.65
2022-11-05T07:23:44.671Z,4.90
2022-11-05T07:26:14.271Z,4.83
2022-11-05T07:28:43.693Z,5.40
2022-11-05T07:31:13.118Z,5.83
2022-11-05T07:33:42.620Z,9.33
2022-11-05T07:36:12.057Z,4.85
2022-11-05T07:38:41.486Z,5.05
2022-11-05T07:41:10.991Z,7.65
2022-11-05T07:43:40.418Z,6.05
2022-11-05T07:46:13.632Z,5.42
2022-11-05T07:48:40.995Z,6.87
2022-11-05T07:51:10.412Z,5.45
2022-11-05T07:53:45.048Z,5.03
2022-11-05T07:56:13.101Z,5.08
2022-11-05T07:58:42.732Z,5.40
2022-11-05T08:01:12.229Z,5.30
2022-11-05T08:03:42.392Z,5.17
2022-11-05T08:06:11.919Z,5.17
2022-11-05T08:08:41.351Z,5.42
2022-11-05T08:11:12.935Z,4.62
2022-11-05T08:13:44.017Z,4.47
2022-11-05T08:16:13.642Z,5.22
2022-11-05T08:18:43.083Z,4.90
2022-11-05T08:21:12.823Z,5.30
2022-11-05T08:23:43.268Z,5.47
2022-11-05T08:26:12.699Z,5.17
2022-11-05T08:28:42.134Z,5.00
2022-11-05T08:33:40.231Z,5.00
2022-11-05T08:36:09.810Z,5.67
2022-11-05T08:38:39.401Z,5.17
2022-11-05T08:41:08.838Z,4.72
2022-11-05T08:43:38.323Z,4.40
2022-11-05T08:46:07.858Z,4.83
2022-11-05T08:48:37.539Z,4.50
2022-11-05T08:51:07.312Z,4.90
2022-11-05T08:53:36.909Z,4.50
2022-11-05T08:56:06.583Z,4.47
2022-11-05T08:58:36.925Z,4.50
2022-11-05T09:01:06.627Z,3.55
2022-11-05T09:03:36.755Z,3.98
2022-11-05T09:06:06.467Z,4.35
2022-11-05T09:08:35.979Z,4.10
2022-11-05T09:11:05.480Z,3.60
2022-11-05T09:13:35.025Z,3.35
2022-11-05T09:16:04.635Z,3.12
2022-11-05T09:18:34.924Z,3.70
2022-11-05T09:21:04.518Z,3.27
2022-11-05T09:23:34.013Z,3.77
2022-11-05T09:26:03.458Z,4.43
2022-11-05T09:28:33.291Z,4.35
2022-11-05T09:31:08.498Z,4.17
2022-11-05T09:33:40.100Z,4.10
2022-11-05T09:36:10.419Z,4.00
2022-11-05T09:38:39.927Z,4.08
2022-11-05T09:41:31.252Z,2.65
2022-11-05T09:44:10.164Z,2.33
2022-11-05T09:46:42.660Z,2.52
2022-11-05T09:49:15.223Z,2.42
2022-11-05T09:51:44.791Z,2.77
2022-11-05T09:54:16.282Z,2.22
2022-11-05T09:56:46.955Z,2.47
2022-11-05T09:59:25.331Z,2.40
2022-11-05T10:01:57.909Z,1.98
2022-11-05T10:04:31.260Z,2.15
2022-11-05T10:07:03.749Z,2.30
2022-11-05T10:09:40.278Z,2.25
2022-11-05T10:12:12.746Z,2.12
2022-11-05T10:14:51.101Z,2.02
2022-11-05T10:17:26.508Z,2.35
2022-11-05T10:19:59.036Z,2.17
2022-11-05T10:22:28.605Z,2.25
2022-11-05T10:24:58.278Z,2.30
2022-11-05T10:27:30.791Z,1.90
2022-11-05T10:30:00.764Z,2.08
2022-11-05T10:32:35.809Z,2.17
2022-11-05T10:35:08.197Z,2.53
2022-11-05T10:37:40.801Z,2.08
2022-11-05T10:40:15.566Z,3.03
2022-11-05T10:43:04.881Z,3.83
2022-11-05T10:45:52.471Z,1.98
2022-11-05T10:48:43.652Z,2.35
2022-11-05T10:51:11.726Z,3.10
2022-11-05T10:53:44.105Z,2.35
2022-11-05T10:56:31.792Z,2.87
2022-11-05T10:59:06.688Z,2.00
2022-11-05T11:01:34.987Z,2.17
2022-11-05T11:04:19.825Z,2.02
2022-11-05T11:06:52.595Z,2.85
2022-11-05T11:12:06.795Z,2.00
2022-11-05T11:14:36.336Z,2.33
2022-11-05T11:17:27.986Z,2.50
2022-11-05T11:20:29.570Z,1.83
2022-11-05T11:23:02.074Z,2.30
2022-11-05T11:25:34.591Z,2.12
2022-11-05T11:28:06.849Z,2.27
2022-11-05T11:30:36.432Z,1.67
2022-11-05T11:33:09.304Z,2.20
2022-11-05T11:35:39.946Z,2.30
2022-11-05T11:38:12.517Z,2.00
2022-11-05T11:40:42.982Z,1.92
2022-11-05T11:43:24.528Z,2.27
2022-11-05T11:46:02.146Z,2.15
2022-11-05T11:48:30.326Z,1.70
2022-11-05T11:51:02.066Z,1.70
2022-11-05T11:53:36.553Z,2.17
2022-11-05T11:56:11.856Z,1.82
2022-11-05T11:58:47.421Z,2.85
2022-11-05T12:01:39.771Z,2.30
2022-11-05T12:04:24.575Z,2.40
2022-11-05T12:07:16.707Z,2.25
2022-11-05T12:10:05.780Z,2.13
2022-11-05T12:12:40.832Z,2.40
2022-11-05T12:15:25.419Z,2.30
2022-11-05T12:18:12.677Z,2.10
2022-11-05T12:20:58.480Z,2.10
2022-11-05T12:23:55.335Z,1.85
2022-11-05T12:26:44.488Z,1.80
2022-11-05T12:29:38.041Z,2.65
2022-11-05T12:32:10.647Z,1.80
2022-11-05T12:34:48.702Z,2.15
2022-11-05T12:37:36.384Z,2.10
2022-11-05T12:40:17.824Z,2.12
2022-11-05T12:43:11.752Z,2.25
2022-11-05T12:46:03.820Z,1.98
2022-11-05T12:48:48.436Z,1.40
2022-11-05T12:51:32.806Z,2.25
2022-11-05T12:54:13.544Z,1.83
2022-11-05T12:56:51.323Z,1.72
2022-11-05T12:59:33.498Z,1.87
2022-11-05T13:02:06.065Z,1.52
2022-11-05T13:04:53.502Z,2.30
2022-11-05T13:07:25.984Z,2.00
2022-11-05T13:10:04.239Z,2.35
2022-11-05T13:12:36.726Z,2.40
2022-11-05T13:15:18.120Z,2.05
2022-11-05T13:17:56.528Z,2.22
2022-11-05T13:20:35.044Z,2.00
2022-11-05T13:23:07.553Z,1.97
2022-11-05T13:25:40.092Z,2.20
2022-11-05T13:28:21.872Z,1.75
2022-11-05T13:30:57.514Z,2.22
2022-11-05T13:33:47.869Z,2.35
2022-11-05T13:36:41.141Z,2.35
2022-11-05T13:39:22.474Z,1.70
2022-11-05T13:41:55.075Z,2.20
2022-11-05T13:44:53.357Z,1.65
2022-11-05T13:47:37.738Z,2.70
2022-11-05T13:50:16.239Z,2.47
2022-11-05T13:53:22.019Z,2.35
2022-11-05T13:56:12.492Z,2.20
2022-11-05T13:58:56.585Z,1.98
2022-11-05T14:01:41.386Z,2.55
2022-11-05T14:04:23.485Z,2.00
2022-11-05T14:06:53.237Z,2.07
2022-11-05T14:09:25.997Z,1.80
2022-11-05T14:12:00.136Z,2.10
2022-11-05T14:14:32.607Z,2.27
2022-11-05T14:17:17.044Z,2.33
2022-11-05T14:20:00.241Z,1.80
2022-11-05T14:22:36.160Z,1.75
2022-11-05T14:25:25.428Z,2.35
2022-11-05T14:27:55.407Z,2.12
2022-11-05T14:30:44.933Z,2.00
2022-11-05T14:33:17.446Z,2.40
2022-11-05T14:35:46.966Z,1.98
2022-11-05T14:38:22.552Z,1.87
2022-11-05T14:40:57.973Z,1.95
2022-11-05T14:43:30.249Z,1.77
2022-11-05T14:46:07.350Z,2.20
2022-11-05T14:48:45.564Z,2.00
2022-11-05T14:51:36.093Z,2.33
2022-11-05T14:54:17.710Z,2.05
2022-11-05T14:56:55.904Z,2.20
2022-11-05T14:59:32.116Z,2.33
2022-11-05T15:02:07.535Z,2.47
2022-11-05T15:04:43.949Z,1.90
2022-11-05T15:07:16.690Z,1.87
2022-11-05T15:09:52.519Z,2.42
2022-11-05T15:12:44.643Z,2.30
2022-11-05T15:15:29.043Z,1.90
2022-11-05T15:18:28.181Z,2.37
2022-11-05T15:21:00.947Z,2.05
2022-11-05T15:23:39.188Z,2.60
2022-11-05T15:26:23.683Z,1.98
2022-11-05T15:28:55.277Z,1.80
2022-11-05T15:31:27.777Z,1.87
2022-11-05T15:34:19.753Z,1.85
2022-11-05T15:36:59.780Z,2.00
2022-11-05T15:39:34.602Z,2.37
2022-11-05T15:42:06.924Z,1.82
2022-11-05T15:44:48.918Z,2.30
2022-11-05T15:47:24.046Z,2.10
2022-11-05T15:50:02.195Z,1.72
2022-11-05T15:52:45.223Z,2.20
2022-11-05T15:55:18.454Z,2.27
2022-11-05T15:58:05.654Z,1.50
2022-11-05T16:00:38.194Z,1.60
2022-11-05T16:03:28.979Z,2.27
2022-11-05T16:06:00.387Z,2.08
2022-11-05T16:08:31.999Z,1.85
2022-11-05T16:11:02.618Z,1.75
2022-11-05T16:13:41.212Z,1.87
2022-11-05T16:16:21.443Z,1.67
2022-11-05T16:18:50.883Z,2.02
2022-11-05T16:21:23.491Z,2.25
2022-11-05T16:23:58.608Z,2.02
2022-11-05T16:29:19.224Z,2.10
2022-11-05T16:31:54.654Z,2.27
2022-11-05T16:34:29.965Z,2.58
2022-11-05T16:37:00.479Z,2.12
2022-11-05T16:39:29.917Z,2.27
2022-11-05T16:41:59.495Z,2.02
2022-11-05T16:44:29.044Z,2.27
2022-11-05T16:46:59.143Z,2.85
2022-11-05T16:49:28.571Z,2.15
2022-11-05T16:52:00.301Z,2.10
2022-11-05T16:54:29.726Z,2.40
2022-11-05T16:57:00.291Z,2.92
2022-11-05T16:59:30.831Z,2.90
2022-11-05T17:02:01.021Z,2.50
2022-11-05T17:04:30.708Z,3.10
2022-11-05T17:07:00.173Z,3.50
2022-11-05T17:09:32.281Z,3.62
2022-11-05T17:12:02.697Z,3.47
2022-11-05T17:14:32.191Z,2.72
2022-11-05T17:17:02.406Z,3.70
2022-11-05T17:19:31.909Z,5.58
2022-11-05T17:22:01.443Z,4.85
2022-11-05T17:24:30.968Z,3.95
2022-11-05T17:27:00.395Z,3.35
2022-11-05T17:29:29.837Z,3.12
2022-11-05T17:32:00.851Z,3.50
2022-11-05T17:34:30.276Z,3.95
2022-11-05T17:36:59.818Z,5.17
2022-11-05T17:39:31.770Z,5.45
2022-11-05T17:42:00.295Z,6.65
2022-11-05T17:44:29.813Z,13.58
2022-11-05T17:46:59.286Z,13.38
2022-11-05T17:49:28.720Z,12.25
2022-11-05T17:51:58.199Z,16.12
2022-11-05T17:54:27.753Z,18.52
2022-11-05T17:56:57.200Z,18.95
2022-11-05T17:59:26.720Z,16.82
2022-11-05T18:01:56.304Z,14.75
2022-11-05T18:04:25.774Z,13.35
2022-11-05T18:06:56.034Z,12.13
2022-11-05T18:09:25.814Z,11.33
2022-11-05T18:11:55.310Z,12.90
2022-11-05T18:14:24.911Z,11.65
2022-11-05T18:16:56.073Z,11.40
2022-11-05T18:19:25.445Z,9.38
2022-11-05T18:21:55.594Z,8.45
2022-11-05T18:24:25.113Z,8.58
2022-11-05T18:26:54.558Z,7.05
2022-11-05T18:29:23.969Z,5.92
2022-11-05T18:31:53.435Z,6.10
2022-11-05T18:34:22.862Z,6.80
2022-11-05T18:36:56.388Z,6.72
2022-11-05T18:39:25.819Z,6.60
2022-11-05T18:41:55.362Z,6.47
2022-11-05T18:44:25.341Z,6.03
2022-11-05T18:46:58.840Z,6.55
2022-11-05T18:49:26.517Z,6.67
2022-11-05T18:51:55.960Z,7.67
2022-11-05T18:54:25.480Z,11.90
2022-11-05T18:56:55.482Z,10.08
2022-11-05T18:59:40.920Z,10.23
2022-11-05T19:01:57.061Z,10.00
2022-11-05T19:04:27.038Z,10.95
2022-11-05T19:07:01.511Z,11.70
2022-11-05T19:09:27.935Z,11.53
2022-11-05T19:11:57.374Z,11.05
2022-11-05T19:14:26.878Z,10.95
2022-11-05T19:16:57.738Z,12.82
2022-11-05T19:19:29.317Z,14.73
2022-11-05T19:21:59.340Z,14.28
2022-11-05T19:24:29.693Z,15.60
2022-11-05T19:26:59.354Z,15.08
2022-11-05T19:29:28.966Z,14.93
2022-11-05T19:31:59.374Z,13.70
2022-11-05T19:34:28.934Z,13.28
2022-11-05T19:36:58.378Z,13.68
2022-11-05T19:39:27.830Z,29.80
2022-11-05T19:42:02.986Z,20.08
2022-11-05T19:44:29.056Z,17.50
2022-11-05T19:46:58.667Z,20.35
2022-11-05T19:49:29.740Z,31.40
2022-11-05T19:51:59.613Z,22.05
2022-11-05T19:54:29.105Z,21.77
2022-11-05T19:56:58.803Z,25.88
2022-11-05T19:59:28.658Z,26.02
2022-11-05T20:01:58.191Z,26.00
2022-11-05T20:04:27.740Z,27.25
2022-11-05T20:06:57.297Z,29.35
2022-11-05T20:09:27.232Z,31.82
2022-11-05T20:11:57.341Z,31.55
2022-11-05T20:14:28.179Z,29.50
2022-11-05T20:16:57.751Z,34.85
2022-11-05T20:19:27.255Z,33.28
2022-11-05T20:21:58.251Z,30.80
2022-11-05T20:24:27.819Z,28.73
2022-11-05T20:26:58.423Z,27.40
2022-11-05T20:29:33.819Z,26.87
2022-11-05T20:32:00.489Z,30.40
2022-11-05T20:34:31.881Z,29.80
2022-11-05T20:37:02.165Z,31.68
2022-11-05T20:39:31.746Z,33.25
2022-11-05T20:42:01.284Z,41.05
2022-11-05T20:44:30.705Z,36.35
2022-11-05T20:47:00.773Z,34.25
2022-11-05T20:49:30.291Z,32.60
2022-11-05T20:51:59.714Z,32.45
2022-11-05T20:54:29.232Z,33.15
2022-11-05T20:56:58.678Z,33.15
2022-11-05T20:59:28.116Z,33.63
2022-11-05T21:01:57.694Z,33.78
2022-11-05T21:04:27.637Z,35.08
2022-11-05T21:06:57.090Z,35.90
2022-11-05T21:09:26.602Z,36.40
2022-11-05T21:12:10.882Z,36.03
2022-11-05T21:14:47.294Z,34.55
2022-11-05T21:17:16.804Z,38.67
2022-11-05T21:19:46.225Z,40.85
2022-11-05T21:22:15.749Z,37.48
2022-11-05T21:24:45.280Z,38.05
2022-11-05T21:27:14.719Z,38.13
2022-11-05T21:29:44.293Z,37.88
2022-11-05T21:32:13.760Z,36.97
2022-11-05T21:34:43.265Z,37.10
2022-11-05T21:37:13.257Z,34.10
2022-11-05T21:39:42.974Z,35.55
2022-11-05T21:42:12.408Z,34.70
2022-11-05T21:44:41.837Z,34.92
2022-11-05T21:47:11.379Z,35.63
2022-11-05T21:49:40.809Z,35.15
2022-11-05T21:52:30.075Z,34.18
2022-11-05T21:55:17.649Z,31.90
2022-11-05T21:58:04.730Z,30.50
2022-11-05T22:00:34.298Z,30.40
2022-11-05T22:03:03.726Z,30.10
2022-11-05T22:05:33.366Z,27.90
2022-11-05T22:08:03.536Z,28.35
2022-11-05T22:10:32.948Z,28.23
2022-11-05T22:13:02.561Z,26.40
2022-11-05T22:15:32.061Z,24.12
2022-11-05T22:18:01.501Z,26.17
2022-11-05T22:20:31.026Z,27.87
2022-11-05T22:23:00.460Z,27.30
2022-11-05T22:25:29.890Z,27.62
2022-11-05T22:27:59.386Z,26.20
2022-11-05T22:30:28.941Z,28.57
2022-11-05T22:32:58.381Z,27.70
2022-11-05T22:35:27.903Z,28.98
2022-11-05T22:37:57.424Z,29.20
2022-11-05T22:40:27.048Z,28.45
2022-11-05T22:42:56.732Z,26.15
2022-11-05T22:45:26.201Z,26.00
2022-11-05T22:47:55.637Z,25.50
2022-11-05T22:50:25.141Z,24.43
2022-11-05T22:52:54.644Z,24.77
2022-11-05T22:55:24.060Z,24.12
2022-11-05T22:57:54.026Z,21.93
2022-11-05T23:00:26.710Z,21.75
2022-11-05T23:02:56.285Z,21.60
2022-11-05T23:05:26.215Z,21.05
2022-11-05T23:08:13.844Z,21.20
2022-11-05T23:11:01.896Z,21.93
2022-11-05T23:13:31.884Z,21.75
2022-11-05T23:16:19.337Z,22.35
2022-11-05T23:19:07.143Z,21.33
2022-11-05T23:21:54.650Z,23.60
2022-11-05T23:24:24.192Z,23.15
2022-11-05T23:26:54.203Z,22.45
2022-11-05T23:29:26.132Z,21.80
2022-11-05T23:32:13.846Z,21.17
2022-11-05T23:34:43.458Z,20.95
2022-11-05T23:37:30.867Z,20.60
2022-11-05T23:40:00.438Z,19.17
2022-11-05T23:42:47.904Z,16.95
2022-11-05T23:45:35.662Z,17.10
2022-11-05T23:48:17.083Z,16.87
2022-11-05T23:50:52.569Z,15.93
2022-11-05T23:53:22.558Z,15.53
2022-11-05T23:55:52.366Z,14.63
2022-11-05T23:58:21.795Z,14.55
